Time;durP1;ratioP1;P1;durP2;ratioP2;P2;SDS_P1;SDS_P2;PMS_P1;PMS_P2;Temp;Humidity;BMP_temperature;BMP_pressure;BME280_temperature;BME280_humidity;BME280_pressure;Samples;Min_cycle;Max_cycle;Signal;HPM_P1;HPM_P2
2023/04/27 00:00:17;;;;;;;;;;;;;;;12.77;45.87;99884.69;10643933;27;20112;-72
2023/04/27 00:05:19;;;;;;;;;;;;;;;12.59;46.81;99868.06;10686892;27;20297;-72
2023/04/27 00:10:21;;;;;;;;;;;;;;;12.67;46.25;99881.09;10697021;27;19930;-72
2023/04/27 00:15:23;;;;;;;;;;;;;;;13.10;45.61;99921.03;10637882;27;19927;-72
2023/04/27 00:20:25;;;;;;;;;;;;;;;13.13;46.46;99898.34;10681607;27;19934;-72
2023/04/27 00:25:27;;;;;;;;;;;;;;;13.14;46.71;99894.47;10631658;27;19927;-73
2023/04/27 00:30:29;;;;;;;;;;;;;;;13.04;46.14;99914.03;10666767;27;20402;-72
2023/04/27 00:35:32;;;;;;;;;;;;;;;13.23;46.56;99895.38;10671894;27;20014;-72
2023/04/27 00:40:34;;;;;;;;;;;;;;;13.22;46.70;99915.78;10646989;27;19923;-72
2023/04/27 00:45:40;;;;;;;;;;;;;;;13.68;46.29;99909.00;10654821;27;19930;-72
2023/04/27 00:50:42;;;;;;;;;;;;;;;13.51;46.12;99912.50;10654520;27;20316;-72
2023/04/27 00:55:44;;;;;;;;;;;;;;;13.83;45.81;99920.38;10647654;27;19924;-72
2023/04/27 01:00:46;;;;;;;;;;;;;;;13.91;44.97;99913.28;10653270;27;19930;-72
2023/04/27 01:05:49;;;;;;;;;;;;;;;13.76;45.26;99897.19;10663043;27;19923;-72
2023/04/27 01:10:51;;;;;;;;;;;;;;;13.27;45.82;99905.44;10660036;27;19928;-72
2023/04/27 01:15:53;;;;;;;;;;;;;;;12.91;46.66;99896.47;10653704;27;20289;-72
2023/04/27 01:20:55;;;;;;;;;;;;;;;13.34;46.91;99887.63;10656880;27;19930;-72
2023/04/27 01:25:57;;;;;;;;;;;;;;;13.42;46.09;99882.16;10671530;27;19941;-72
2023/04/27 01:30:59;;;;;;;;;;;;;;;13.73;46.31;99892.31;10648472;27;19923;-72
2023/04/27 01:36:01;;;;;;;;;;;;;;;13.65;45.60;99887.56;10688802;27;19923;-72
2023/04/27 01:41:04;;;;;;;;;;;;;;;13.31;46.29;99886.31;10654614;27;19923;-72
2023/04/27 01:46:06;;;;;;;;;;;;;;;13.17;46.29;99883.63;10677831;27;20305;-72
2023/04/27 01:51:09;;;;;;;;;;;;;;;13.15;46.88;99902.41;10679695;27;19923;-72
2023/04/27 01:56:11;;;;;;;;;;;;;;;13.00;46.91;99897.31;10648990;27;19923;-72
2023/04/27 02:01:13;;;;;;;;;;;;;;;13.08;46.89;99929.59;10658295;27;19931;-71
2023/04/27 02:06:15;;;;;;;;;;;;;;;13.07;48.05;99935.44;10643222;27;19923;-71
2023/04/27 02:11:17;;;;;;;;;;;;;;;13.35;48.02;99927.81;10652327;27;19923;-71
2023/04/27 02:16:19;;;;;;;;;;;;;;;13.22;47.74;99949.66;10630761;27;20411;-71
2023/04/27 02:21:21;;;;;;;;;;;;;;;13.32;48.03;99961.53;10646527;27;19927;-72
2023/04/27 02:26:28;;;;;;;;;;;;;;;13.11;48.69;99950.19;10667257;27;19946;-72
2023/04/27 02:31:30;;;;;;;;;;;;;;;12.88;50.11;99968.69;10652910;27;19930;-72
2023/04/27 02:36:31;;;;;;;;;;;;;;;12.44;52.42;99974.94;10653035;27;19938;-72
2023/04/27 02:41:33;;;;;;;;;;;;;;;12.35;54.33;99972.13;10643995;27;19923;-71
2023/04/27 02:46:35;;;;;;;;;;;;;;;12.01;55.87;99967.09;10641296;27;19992;-72
2023/04/27 02:51:38;;;;;;;;;;;;;;;12.26;54.84;99972.03;10647715;27;19927;-72
2023/04/27 02:56:40;;;;;;;;;;;;;;;12.46;54.83;99978.19;10643509;27;19927;-72
2023/04/27 03:01:42;;;;;;;;;;;;;;;12.61;54.43;99984.16;10650883;27;20384;-72
2023/04/27 03:06:44;;;;;;;;;;;;;;;12.68;55.33;99994.75;10640943;27;19949;-72
2023/04/27 03:11:46;;;;;;;;;;;;;;;12.46;55.20;100005.72;10664807;27;20285;-72
2023/04/27 03:16:48;;;;;;;;;;;;;;;12.71;54.90;99991.38;10671223;27;19938;-72
2023/04/27 03:21:50;;;;;;;;;;;;;;;12.92;54.29;99998.03;10651103;27;19923;-72
2023/04/27 03:26:52;;;;;;;;;;;;;;;12.83;55.68;99999.06;10659218;27;19954;-72
2023/04/27 03:31:56;;;;;;;;;;;;;;;12.38;56.38;100015.53;10645854;27;19930;-71
2023/04/27 03:36:58;;;;;;;;;;;;;;;12.37;56.18;100020.22;10667631;27;19934;-71
2023/04/27 03:42:03;;;;;;;;;;;;;;;12.37;56.69;100011.97;10654959;27;19922;-71
2023/04/27 03:47:08;;;;;;;;;;;;;;;12.41;56.52;100003.91;10665967;27;19924;-72
2023/04/27 03:52:11;;;;;;;;;;;;;;;12.11;57.77;100005.34;10662246;27;19923;-72
2023/04/27 03:57:14;;;;;;;;;;;;;;;12.29;58.07;100017.34;10667264;27;19930;-72
2023/04/27 04:02:17;;;;;;;;;;;;;;;12.61;57.00;100008.13;10661107;27;19923;-73
2023/04/27 04:07:19;;;;;;;;;;;;;;;12.48;57.46;100003.47;10646772;27;19928;-73
2023/04/27 04:12:21;;;;;;;;;;;;;;;12.06;59.21;100010.97;10625355;27;19930;-72
2023/04/27 04:17:25;;;;;;;;;;;;;;;12.15;59.59;100022.03;10644871;27;19923;-72
2023/04/27 04:22:27;;;;;;;;;;;;;;;12.34;59.40;100020.84;10644112;27;19930;-72
2023/04/27 04:27:33;;;;;;;;;;;;;;;12.67;58.07;100020.66;10687635;27;19923;-71
2023/04/27 04:32:36;;;;;;;;;;;;;;;12.49;58.44;100016.09;10667665;27;19927;-72
2023/04/27 04:37:39;;;;;;;;;;;;;;;12.44;59.12;100033.53;10640483;27;19927;-72
2023/04/27 04:42:42;;;;;;;;;;;;;;;12.64;58.63;100049.59;10678507;27;19923;-73
2023/04/27 04:47:46;;;;;;;;;;;;;;;12.65;58.47;100042.16;10648824;27;19933;-72
2023/04/27 04:52:49;;;;;;;;;;;;;;;12.33;60.35;100043.97;10656323;27;19934;-72
2023/04/27 04:57:52;;;;;;;;;;;;;;;11.89;61.80;100043.75;10642355;27;19930;-71
2023/04/27 05:02:54;;;;;;;;;;;;;;;11.49;63.61;100043.38;10646031;27;19923;-72
2023/04/27 05:07:57;;;;;;;;;;;;;;;11.38;63.29;100041.91;10675255;27;19923;-71
2023/04/27 05:12:59;;;;;;;;;;;;;;;11.22;64.22;100054.25;10662643;27;19927;-71
2023/04/27 05:18:01;;;;;;;;;;;;;;;11.44;63.87;100052.47;10659948;27;19923;-72
2023/04/27 05:23:03;;;;;;;;;;;;;;;11.91;62.62;100044.25;10671199;27;19923;-72
2023/04/27 05:28:05;;;;;;;;;;;;;;;12.26;62.09;100053.72;10640475;27;19923;-72
2023/04/27 05:33:07;;;;;;;;;;;;;;;12.02;62.67;100052.03;10643131;27;19923;-72
2023/04/27 05:38:09;;;;;;;;;;;;;;;12.36;61.74;100039.78;10659516;27;19974;-72
2023/04/27 05:43:11;;;;;;;;;;;;;;;12.04;61.86;100055.28;10675503;27;19923;-72
2023/04/27 05:48:14;;;;;;;;;;;;;;;12.06;62.67;100052.22;10650347;27;19923;-71
2023/04/27 05:53:16;;;;;;;;;;;;;;;12.49;61.52;100065.63;10664961;27;20034;-72
2023/04/27 05:58:18;;;;;;;;;;;;;;;12.73;61.42;100066.22;10681361;27;19948;-71
2023/04/27 06:03:20;;;;;;;;;;;;;;;12.53;60.63;100066.66;10680798;27;19922;-71
2023/04/27 06:08:22;;;;;;;;;;;;;;;12.42;61.66;100060.56;10684982;27;19923;-71
2023/04/27 06:13:24;;;;;;;;;;;;;;;12.34;61.30;100073.09;10640699;27;20293;-71
2023/04/27 06:18:26;;;;;;;;;;;;;;;12.39;61.83;100072.19;10642889;27;19930;-71
2023/04/27 06:23:28;;;;;;;;;;;;;;;12.08;61.99;100081.03;10682424;27;19931;-72
2023/04/27 06:28:30;;;;;;;;;;;;;;;12.33;61.71;100067.91;10660059;27;19972;-71
2023/04/27 06:33:32;;;;;;;;;;;;;;;11.93;62.67;100066.75;10675069;27;20245;-71
2023/04/27 06:38:34;;;;;;;;;;;;;;;11.68;64.09;100071.59;10664559;27;19929;-71
2023/04/27 06:43:36;;;;;;;;;;;;;;;11.93;63.17;100070.31;10656250;27;19935;-70
2023/04/27 06:48:39;;;;;;;;;;;;;;;12.19;62.28;100078.09;10636155;27;19923;-71
2023/04/27 06:53:41;;;;;;;;;;;;;;;12.79;61.52;100083.44;10688053;27;19930;-71
2023/04/27 06:58:43;;;;;;;;;;;;;;;13.11;60.26;100082.41;10680502;27;19929;-72
2023/04/27 07:03:45;;;;;;;;;;;;;;;13.30;59.79;100085.84;10673832;27;19930;-72
2023/04/27 07:08:47;;;;;;;;;;;;;;;13.96;58.48;100097.13;10654729;27;19985;-73
2023/04/27 07:13:50;;;;;;;;;;;;;;;13.69;58.53;100098.09;10665370;27;20289;-72
2023/04/27 07:18:53;;;;;;;;;;;;;;;13.02;59.68;100100.81;10657483;27;20432;-71
2023/04/27 07:23:55;;;;;;;;;;;;;;;13.48;59.04;100104.13;10640368;27;19967;-71
2023/04/27 07:28:57;;;;;;;;;;;;;;;13.21;59.06;100116.09;10667281;27;19926;-72
2023/04/27 07:33:59;;;;;;;;;;;;;;;13.26;59.36;100117.91;10676491;27;20412;-71
2023/04/27 07:39:01;;;;;;;;;;;;;;;13.28;59.97;100121.16;10635153;27;20422;-71
2023/04/27 07:44:04;;;;;;;;;;;;;;;13.73;59.01;100119.25;10698147;27;19923;-72
2023/04/27 07:49:06;;;;;;;;;;;;;;;14.15;57.47;100108.75;10636245;27;20376;-73
2023/04/27 07:54:08;;;;;;;;;;;;;;;14.23;57.99;100115.41;10640277;27;19923;-73
2023/04/27 07:59:10;;;;;;;;;;;;;;;15.64;54.16;100102.03;10663378;27;20047;-73
2023/04/27 08:04:12;;;;;;;;;;;;;;;16.32;52.03;100112.41;10635809;27;20004;-73
2023/04/27 08:09:14;;;;;;;;;;;;;;;16.11;51.84;100104.00;10656926;27;19930;-73
2023/04/27 08:14:16;;;;;;;;;;;;;;;16.37;51.45;100112.22;10688912;27;19922;-74
2023/04/27 08:19:18;;;;;;;;;;;;;;;15.70;52.32;100122.03;10640817;27;19923;-72
2023/04/27 08:24:20;;;;;;;;;;;;;;;15.31;53.43;100134.88;10659895;27;20308;-71
2023/04/27 08:29:22;;;;;;;;;;;;;;;16.09;51.79;100147.81;10677015;27;19924;-76
2023/04/27 08:34:24;;;;;;;;;;;;;;;14.96;54.15;100138.75;10669552;27;20316;-76
2023/04/27 08:39:26;;;;;;;;;;;;;;;14.39;55.60;100144.22;10665200;27;20320;-76
2023/04/27 08:44:29;;;;;;;;;;;;;;;13.91;58.97;100103.59;10663219;27;20003;-76
2023/04/27 08:49:31;;;;;;;;;;;;;;;13.28;60.20;100144.03;10657217;27;19923;-75
2023/04/27 08:54:34;;;;;;;;;;;;;;;13.30;63.07;100167.69;10631203;27;20393;-73
2023/04/27 08:59:36;;;;;;;;;;;;;;;13.45;62.33;100154.38;10662418;27;20429;-74
2023/04/27 09:04:39;;;;;;;;;;;;;;;14.87;59.04;100149.78;10680736;27;19924;-77
2023/04/27 09:09:44;;;;;;;;;;;;;;;15.01;56.51;100155.16;10623375;27;20444;-75
2023/04/27 09:14:56;;;;;;;;;;;;;;;15.72;54.21;100152.94;10690312;27;19923;-75
2023/04/27 09:20:09;;;;;;;;;;;;;;;15.80;53.24;100151.31;10665809;27;19923;-74
2023/04/27 09:25:26;;;;;;;;;;;;;;;15.10;55.40;100156.00;10647623;27;20426;-74
2023/04/27 09:30:28;;;;;;;;;;;;;;;14.51;55.92;100162.97;10677411;27;19923;-75
2023/04/27 09:35:32;;;;;;;;;;;;;;;14.42;56.05;100155.47;10639770;27;19935;-75
2023/04/27 09:40:35;;;;;;;;;;;;;;;14.07;57.88;100162.75;10660533;27;19923;-75
2023/04/27 09:45:37;;;;;;;;;;;;;;;14.01;56.83;100152.16;10675661;27;20543;-74
2023/04/27 09:50:45;;;;;;;;;;;;;;;13.87;57.23;100163.25;10691938;27;19934;-74
2023/04/27 09:56:02;;;;;;;;;;;;;;;13.75;58.06;100160.28;10700187;27;19962;-74
2023/04/27 10:01:10;;;;;;;;;;;;;;;13.63;58.08;100177.38;10699316;27;19923;-73
2023/04/27 10:06:13;;;;;;;;;;;;;;;13.32;58.45;100195.75;10678140;27;19930;-73
2023/04/27 10:11:15;;;;;;;;;;;;;;;12.78;59.96;100201.00;10671839;27;19946;-73
2023/04/27 10:16:17;;;;;;;;;;;;;;;12.93;59.73;100200.69;10687152;27;19923;-72
2023/04/27 10:21:20;;;;;;;;;;;;;;;12.51;61.97;100215.59;10643612;27;20019;-74
2023/04/27 10:26:23;;;;;;;;;;;;;;;12.97;62.12;100215.47;10646065;27;19923;-73
2023/04/27 10:31:30;;;;;;;;;;;;;;;13.35;59.79;100220.75;10628619;27;19954;-72
2023/04/27 10:36:36;;;;;;;;;;;;;;;12.71;59.98;100221.81;10655541;27;19923;-73
2023/04/27 10:41:38;;;;;;;;;;;;;;;12.53;60.14;100215.28;10655495;27;19923;-74
2023/04/27 10:47:00;;;;;;;;;;;;;;;12.43;61.07;100220.97;10628461;27;20445;-74
2023/04/27 10:52:03;;;;;;;;;;;;;;;12.18;59.49;100234.06;10661916;27;20126;-73
2023/04/27 10:57:06;;;;;;;;;;;;;;;12.08;60.01;100246.06;10676794;27;19922;-76
2023/04/27 11:02:10;;;;;;;;;;;;;;;11.95;60.83;100243.25;10657335;27;19923;-75
2023/04/27 11:07:22;;;;;;;;;;;;;;;11.65;62.44;100245.34;10655654;27;19923;-75
2023/04/27 11:12:24;;;;;;;;;;;;;;;11.68;61.86;100239.25;10636170;27;20389;-76
2023/04/27 11:17:30;;;;;;;;;;;;;;;11.67;61.66;100243.13;10636393;27;19923;-76
2023/04/27 11:22:33;;;;;;;;;;;;;;;11.18;63.64;100258.06;10635763;27;20395;-75
2023/04/27 11:27:37;;;;;;;;;;;;;;;10.96;64.68;100249.59;10690811;27;20420;-76
2023/04/27 11:32:39;;;;;;;;;;;;;;;11.25;63.63;100256.88;10654917;27;19927;-76
2023/04/27 11:37:41;;;;;;;;;;;;;;;11.04;64.34;100259.91;10619052;27;20408;-75
2023/04/27 11:42:46;;;;;;;;;;;;;;;10.98;63.74;100274.81;10623861;27;19923;-76
2023/04/27 11:47:48;;;;;;;;;;;;;;;10.62;63.86;100270.84;10678495;27;19930;-76
2023/04/27 11:52:51;;;;;;;;;;;;;;;10.23;65.24;100285.44;10696943;27;19923;-76
2023/04/27 11:57:57;;;;;;;;;;;;;;;10.13;65.99;100301.97;10661336;27;19930;-76
2023/04/27 12:02:59;;;;;;;;;;;;;;;10.08;65.37;100299.28;10673279;27;20407;-76
2023/04/27 12:08:01;;;;;;;;;;;;;;;9.75;65.57;100306.34;10678067;27;19968;-76
2023/04/27 12:13:03;;;;;;;;;;;;;;;10.26;64.87;100309.56;10647504;28;19933;-76
2023/04/27 12:18:05;;;;;;;;;;;;;;;10.28;65.04;100318.31;10618005;28;19930;-76
2023/04/27 12:23:07;;;;;;;;;;;;;;;10.42;64.58;100313.81;10635155;28;19930;-76
2023/04/27 12:28:10;;;;;;;;;;;;;;;10.20;63.96;100324.38;10640436;27;19948;-76
2023/04/27 12:33:12;;;;;;;;;;;;;;;9.67;66.88;100332.41;10661308;27;19930;-76
2023/04/27 12:38:14;;;;;;;;;;;;;;;9.36;67.19;100343.50;10666974;27;19922;-75
2023/04/27 12:43:19;;;;;;;;;;;;;;;9.48;66.59;100361.53;10697888;27;19927;-75
2023/04/27 12:48:22;;;;;;;;;;;;;;;9.36;67.49;100348.97;10685467;27;20416;-74
2023/04/27 12:53:24;;;;;;;;;;;;;;;9.46;67.81;100374.69;10684664;27;19930;-76
2023/04/27 12:58:26;;;;;;;;;;;;;;;9.90;66.04;100374.78;10649324;27;19928;-75
2023/04/27 13:03:28;;;;;;;;;;;;;;;9.98;66.49;100377.72;10662048;27;20289;-74
2023/04/27 13:08:30;;;;;;;;;;;;;;;9.89;66.89;100382.19;10694507;27;19930;-75
2023/04/27 13:13:31;;;;;;;;;;;;;;;9.93;65.86;100369.53;10652286;27;19927;-77
2023/04/27 13:18:34;;;;;;;;;;;;;;;9.39;66.80;100355.03;10696143;27;19922;-77
2023/04/27 13:23:36;;;;;;;;;;;;;;;8.86;70.09;100354.63;10694781;27;19930;-75
2023/04/27 13:28:38;;;;;;;;;;;;;;;8.56;71.98;100352.75;10691145;27;19923;-74
2023/04/27 13:33:40;;;;;;;;;;;;;;;8.30;73.81;100341.78;10669177;27;19926;-76
2023/04/27 13:38:42;;;;;;;;;;;;;;;8.20;74.78;100340.97;10645236;27;19946;-76
2023/04/27 13:43:45;;;;;;;;;;;;;;;8.46;75.05;100331.69;10703003;27;19922;-76
2023/04/27 13:48:47;;;;;;;;;;;;;;;8.42;74.60;100336.91;10672065;27;19930;-75
2023/04/27 13:53:49;;;;;;;;;;;;;;;8.35;74.84;100350.03;10683571;27;19923;-75
2023/04/27 13:58:51;;;;;;;;;;;;;;;8.53;74.27;100354.13;10665938;27;20404;-75
2023/04/27 14:03:53;;;;;;;;;;;;;;;8.59;75.40;100354.94;10691478;27;19972;-75
2023/04/27 14:08:55;;;;;;;;;;;;;;;8.56;75.28;100364.50;10692765;27;20408;-75
2023/04/27 14:13:57;;;;;;;;;;;;;;;8.92;73.58;100369.94;10676127;27;20220;-74
2023/04/27 14:18:59;;;;;;;;;;;;;;;8.83;72.75;100369.66;10693308;27;19923;-75
2023/04/27 14:24:01;;;;;;;;;;;;;;;8.76;72.36;100372.69;10663932;27;19930;-73
2023/04/27 14:29:03;;;;;;;;;;;;;;;8.67;73.70;100373.50;10659807;27;19930;-76
2023/04/27 14:34:05;;;;;;;;;;;;;;;8.98;73.56;100377.03;10687089;27;19922;-73
2023/04/27 14:39:08;;;;;;;;;;;;;;;8.97;73.80;100383.59;10650913;27;19942;-73
2023/04/27 14:44:10;;;;;;;;;;;;;;;9.04;73.84;100390.44;10635152;27;19923;-74
2023/04/27 14:49:12;;;;;;;;;;;;;;;8.96;73.42;100398.38;10652004;27;19950;-74
2023/04/27 14:54:14;;;;;;;;;;;;;;;8.75;72.93;100392.94;10650756;27;19923;-74
2023/04/27 14:59:17;;;;;;;;;;;;;;;8.48;73.18;100397.88;10681066;27;19930;-74
2023/04/27 15:04:19;;;;;;;;;;;;;;;8.32;74.19;100401.66;10663303;27;19922;-74
2023/04/27 15:09:21;;;;;;;;;;;;;;;8.19;74.74;100397.56;10698848;27;19926;-74
2023/04/27 15:14:22;;;;;;;;;;;;;;;8.11;76.05;100415.28;10658580;27;19933;-74
2023/04/27 15:19:24;;;;;;;;;;;;;;;8.16;75.68;100390.72;10645676;27;19923;-73
2023/04/27 15:24:26;;;;;;;;;;;;;;;7.96;79.27;100415.25;10637155;27;19923;-73
2023/04/27 15:29:28;;;;;;;;;;;;;;;8.84;79.52;100422.47;10656131;27;20377;-74
2023/04/27 15:34:32;;;;;;;;;;;;;;;8.72;77.14;100425.50;10658074;27;20208;-73
2023/04/27 15:39:34;;;;;;;;;;;;;;;9.34;77.90;100436.06;10655031;27;20360;-74
2023/04/27 15:44:36;;;;;;;;;;;;;;;10.24;73.23;100443.41;10655661;27;19930;-73
2023/04/27 15:49:38;;;;;;;;;;;;;;;10.24;72.93;100457.13;10654826;27;19930;-73
2023/04/27 15:54:40;;;;;;;;;;;;;;;10.02;72.89;100462.13;10653818;27;19929;-73
2023/04/27 15:59:42;;;;;;;;;;;;;;;9.61;72.92;100446.69;10692553;27;19927;-73
2023/04/27 16:04:44;;;;;;;;;;;;;;;9.28;74.45;100475.53;10696593;27;19930;-73
2023/04/27 16:09:46;;;;;;;;;;;;;;;9.87;73.57;100493.16;10676352;27;19937;-73
2023/04/27 16:14:50;;;;;;;;;;;;;;;10.10;72.67;100480.75;10684378;27;19923;-74
2023/04/27 16:19:52;;;;;;;;;;;;;;;9.72;72.71;100469.41;10681982;27;19931;-73
2023/04/27 16:24:54;;;;;;;;;;;;;;;9.36;74.28;100476.88;10643838;27;19923;-73
2023/04/27 16:29:56;;;;;;;;;;;;;;;9.23;75.69;100461.03;10662980;27;19931;-74
2023/04/27 16:34:58;;;;;;;;;;;;;;;8.95;76.60;100456.94;10652656;27;19924;-74
2023/04/27 16:40:05;;;;;;;;;;;;;;;8.83;75.66;100450.94;10699391;27;19930;-72
2023/04/27 16:45:07;;;;;;;;;;;;;;;8.95;75.96;100465.97;10679685;27;19930;-73
2023/04/27 16:50:10;;;;;;;;;;;;;;;9.04;75.25;100482.69;10670019;27;20396;-74
2023/04/27 16:55:12;;;;;;;;;;;;;;;9.61;73.23;100476.00;10680919;27;19930;-74
2023/04/27 17:00:14;;;;;;;;;;;;;;;9.43;73.22;100507.53;10692320;27;19923;-72
2023/04/27 17:05:16;;;;;;;;;;;;;;;9.60;73.13;100494.34;10682788;27;19930;-73
2023/04/27 17:10:18;;;;;;;;;;;;;;;9.29;73.38;100487.31;10675213;27;19931;-74
2023/04/27 17:15:20;;;;;;;;;;;;;;;8.83;75.77;100491.97;10625330;27;20285;-77
2023/04/27 17:20:22;;;;;;;;;;;;;;;8.60;76.68;100509.72;10648488;27;19923;-77
2023/04/27 17:25:24;;;;;;;;;;;;;;;8.89;75.45;100518.25;10651681;27;19923;-75
2023/04/27 17:30:27;;;;;;;;;;;;;;;9.22;74.10;100534.13;10649138;27;19927;-77
2023/04/27 17:35:29;;;;;;;;;;;;;;;9.14;75.54;100526.47;10648067;27;19946;-78
2023/04/27 17:40:33;;;;;;;;;;;;;;;9.20;74.45;100535.47;10654923;27;19991;-75
2023/04/27 17:45:36;;;;;;;;;;;;;;;8.92;75.87;100529.47;10687372;27;19930;-74
2023/04/27 17:50:39;;;;;;;;;;;;;;;8.83;74.46;100509.22;10691273;27;19924;-72
2023/04/27 17:55:44;;;;;;;;;;;;;;;8.88;75.42;100517.44;10654399;27;19930;-74
2023/04/27 18:00:46;;;;;;;;;;;;;;;8.38;76.88;100523.66;10653125;27;20336;-72
2023/04/27 18:05:48;;;;;;;;;;;;;;;8.33;75.97;100527.16;10652707;27;19923;-74
2023/04/27 18:10:50;;;;;;;;;;;;;;;8.42;77.39;100531.03;10628191;27;19927;-76
2023/04/27 18:15:52;;;;;;;;;;;;;;;8.17;76.94;100533.66;10647273;27;19930;-76
2023/04/27 18:20:54;;;;;;;;;;;;;;;7.94;77.29;100542.28;10635410;27;19927;-77
2023/04/27 18:25:58;;;;;;;;;;;;;;;8.24;77.48;100547.91;10661545;27;19927;-78
2023/04/27 18:31:00;;;;;;;;;;;;;;;8.53;76.89;100550.22;10647628;27;20385;-75
2023/04/27 18:36:02;;;;;;;;;;;;;;;8.14;75.08;100556.03;10676902;27;19931;-75
2023/04/27 18:41:04;;;;;;;;;;;;;;;7.91;75.35;100561.97;10679067;27;19924;-76
2023/04/27 18:46:07;;;;;;;;;;;;;;;7.49;76.41;100585.47;10657169;27;20456;-75
2023/04/27 18:51:09;;;;;;;;;;;;;;;7.65;76.98;100602.78;10638961;27;19966;-76
2023/04/27 18:56:13;;;;;;;;;;;;;;;7.40;77.42;100638.91;10659454;27;19923;-77
2023/04/27 19:01:19;;;;;;;;;;;;;;;7.53;77.17;100632.19;10678660;27;19922;-78
2023/04/27 19:06:22;;;;;;;;;;;;;;;7.53;77.32;100637.63;10676181;27;19923;-76
2023/04/27 19:11:24;;;;;;;;;;;;;;;7.67;78.11;100644.31;10660225;27;19927;-75
2023/04/27 19:16:26;;;;;;;;;;;;;;;7.86;76.31;100628.31;10673252;27;20377;-75
2023/04/27 19:21:28;;;;;;;;;;;;;;;7.47;76.86;100623.13;10688810;27;19923;-76
2023/04/27 19:26:31;;;;;;;;;;;;;;;6.81;77.68;100619.78;10653030;27;20440;-78
2023/04/27 19:31:33;;;;;;;;;;;;;;;6.70;77.90;100625.38;10652589;27;19929;-73
2023/04/27 19:36:40;;;;;;;;;;;;;;;6.38;77.94;100631.53;10691636;27;19930;-74
2023/04/27 19:41:42;;;;;;;;;;;;;;;6.11;79.31;100653.28;10659328;27;19923;-75
2023/04/27 19:46:45;;;;;;;;;;;;;;;6.05;78.12;100641.47;10647228;27;19930;-77
2023/04/27 19:51:47;;;;;;;;;;;;;;;5.69;77.81;100636.53;10657557;27;20448;-75
2023/04/27 19:56:49;;;;;;;;;;;;;;;5.61;77.88;100648.69;10652169;27;20051;-74
2023/04/27 20:01:51;;;;;;;;;;;;;;;6.03;78.29;100667.31;10674236;27;19923;-74
2023/04/27 20:06:55;;;;;;;;;;;;;;;6.09;76.83;100666.31;10643438;27;19923;-73
2023/04/27 20:11:58;;;;;;;;;;;;;;;5.99;76.34;100674.34;10680705;27;19930;-74
2023/04/27 20:17:01;;;;;;;;;;;;;;;6.24;76.58;100674.69;10673040;27;19923;-75
2023/04/27 20:22:04;;;;;;;;;;;;;;;6.20;76.58;100657.19;10661935;27;19927;-78
2023/04/27 20:27:07;;;;;;;;;;;;;;;6.20;74.96;100657.19;10622977;27;19931;-78
2023/04/27 20:32:09;;;;;;;;;;;;;;;6.02;76.13;100668.38;10696571;27;19931;-78
2023/04/27 20:37:12;;;;;;;;;;;;;;;5.82;77.34;100668.06;10673949;27;19923;-76
2023/04/27 20:42:14;;;;;;;;;;;;;;;5.83;77.17;100667.81;10660930;27;19919;-77
2023/04/27 20:47:16;;;;;;;;;;;;;;;6.06;76.81;100669.53;10663170;27;19923;-77
2023/04/27 20:52:18;;;;;;;;;;;;;;;6.03;76.31;100676.31;10651761;27;19923;-74
2023/04/27 20:57:21;;;;;;;;;;;;;;;6.41;75.29;100673.81;10664407;27;19930;-77
2023/04/27 21:02:23;;;;;;;;;;;;;;;6.49;74.99;100665.22;10684621;27;19930;-76
2023/04/27 21:07:26;;;;;;;;;;;;;;;6.64;74.48;100665.41;10655368;27;19940;-75
2023/04/27 21:12:28;;;;;;;;;;;;;;;6.70;73.36;100678.00;10687087;27;19923;-76
2023/04/27 21:17:31;;;;;;;;;;;;;;;6.75;73.86;100683.53;10650226;27;19970;-77
2023/04/27 21:22:33;;;;;;;;;;;;;;;7.20;72.95;100669.56;10659786;27;20401;-76
2023/04/27 21:27:35;;;;;;;;;;;;;;;6.81;73.77;100681.69;10680797;27;19972;-72
2023/04/27 21:32:38;;;;;;;;;;;;;;;6.66;74.56;100682.34;10659688;27;19929;-72
2023/04/27 21:37:40;;;;;;;;;;;;;;;6.46;74.86;100682.91;10700646;27;20316;-72
2023/04/27 21:42:42;;;;;;;;;;;;;;;6.66;74.78;100690.50;10672303;27;19957;-73
2023/04/27 21:47:44;;;;;;;;;;;;;;;7.36;74.42;100692.38;10685137;27;19927;-72
2023/04/27 21:52:46;;;;;;;;;;;;;;;7.38;72.58;100676.56;10644074;27;20428;-73
2023/04/27 21:57:48;;;;;;;;;;;;;;;7.74;71.53;100672.22;10641004;27;19923;-73
2023/04/27 22:02:50;;;;;;;;;;;;;;;7.44;72.31;100664.59;10649245;27;19923;-73
2023/04/27 22:07:53;;;;;;;;;;;;;;;7.29;73.68;100664.47;10660697;27;19930;-73
2023/04/27 22:12:55;;;;;;;;;;;;;;;7.23;73.15;100668.22;10649356;27;19927;-72
2023/04/27 22:17:58;;;;;;;;;;;;;;;6.72;75.03;100664.13;10650313;27;20406;-72
2023/04/27 22:23:00;;;;;;;;;;;;;;;7.30;74.13;100659.84;10640465;27;19923;-73
2023/04/27 22:28:02;;;;;;;;;;;;;;;7.27;73.67;100666.59;10626687;27;19923;-74
2023/04/27 22:33:05;;;;;;;;;;;;;;;7.39;73.28;100655.53;10657474;27;19927;-73
2023/04/27 22:38:07;;;;;;;;;;;;;;;7.44;72.75;100661.84;10646882;27;19923;-72
2023/04/27 22:43:09;;;;;;;;;;;;;;;7.04;72.86;100673.22;10648808;27;19924;-72
2023/04/27 22:48:11;;;;;;;;;;;;;;;7.12;73.81;100675.50;10619207;27;19939;-73
2023/04/27 22:53:14;;;;;;;;;;;;;;;6.97;74.08;100680.78;10624516;27;19923;-73
2023/04/27 22:58:17;;;;;;;;;;;;;;;7.17;73.61;100667.34;10622798;27;19931;-73
2023/04/27 23:03:19;;;;;;;;;;;;;;;7.02;73.75;100672.66;10646087;27;19957;-73
2023/04/27 23:08:24;;;;;;;;;;;;;;;6.81;74.32;100679.78;10656148;27;20023;-73
2023/04/27 23:13:26;;;;;;;;;;;;;;;7.14;74.49;100677.97;10612382;27;19923;-74
2023/04/27 23:18:28;;;;;;;;;;;;;;;7.30;73.23;100679.75;10623847;27;19985;-74
2023/04/27 23:23:30;;;;;;;;;;;;;;;7.31;73.03;100686.88;10611728;27;19923;-74
2023/04/27 23:28:32;;;;;;;;;;;;;;;7.16;71.96;100684.81;10659237;27;20304;-74
2023/04/27 23:33:34;;;;;;;;;;;;;;;7.16;72.62;100686.72;10650345;27;20046;-73
2023/04/27 23:38:36;;;;;;;;;;;;;;;7.19;72.54;100694.38;10637218;27;19923;-74
2023/04/27 23:43:38;;;;;;;;;;;;;;;7.07;72.86;100688.25;10655582;27;19927;-74
2023/04/27 23:48:41;;;;;;;;;;;;;;;7.19;72.82;100697.13;10676791;27;19923;-75
2023/04/27 23:53:43;;;;;;;;;;;;;;;7.23;71.87;100695.50;10675334;27;19927;-73
2023/04/27 23:58:46;;;;;;;;;;;;;;;7.19;72.13;100699.84;10684774;27;20424;-73
